sensor_id;sensor_type;location;lat;lon;timestamp;pressure;altitude;pressure_sealevel;temperature;humidity
26531;BME280;14201;43.188;24.160;2024-03-22T00:02:09;99936.13;;;6.57;68.95
26531;BME280;14201;43.188;24.160;2024-03-22T00:04:37;99939.25;;;6.66;69.44
26531;BME280;14201;43.188;24.160;2024-03-22T00:07:03;99930.22;;;6.60;68.17
26531;BME280;14201;43.188;24.160;2024-03-22T00:09:29;99939.13;;;6.50;67.16
26531;BME280;14201;43.188;24.160;2024-03-22T00:11:55;99948.09;;;6.42;67.78
26531;BME280;14201;43.188;24.160;2024-03-22T00:14:20;99945.50;;;6.42;67.98
26531;BME280;14201;43.188;24.160;2024-03-22T00:16:46;99947.66;;;6.49;67.32
26531;BME280;14201;43.188;24.160;2024-03-22T00:19:11;99946.19;;;6.39;66.55
26531;BME280;14201;43.188;24.160;2024-03-22T00:21:37;99955.16;;;6.31;66.34
26531;BME280;14201;43.188;24.160;2024-03-22T00:24:02;99939.63;;;6.04;66.99
26531;BME280;14201;43.188;24.160;2024-03-22T00:26:29;99940.00;;;5.84;68.64
26531;BME280;14201;43.188;24.160;2024-03-22T00:28:54;99941.41;;;5.92;68.94
26531;BME280;14201;43.188;24.160;2024-03-22T00:31:20;99946.00;;;5.96;69.07
26531;BME280;14201;43.188;24.160;2024-03-22T00:33:45;99950.56;;;6.00;69.11
26531;BME280;14201;43.188;24.160;2024-03-22T00:36:11;99948.44;;;5.95;68.83
26531;BME280;14201;43.188;24.160;2024-03-22T00:38:36;99947.88;;;5.99;68.83
26531;BME280;14201;43.188;24.160;2024-03-22T00:41:02;99942.88;;;5.88;69.35
26531;BME280;14201;43.188;24.160;2024-03-22T00:43:28;99939.59;;;5.91;69.39
26531;BME280;14201;43.188;24.160;2024-03-22T00:45:53;99944.97;;;5.81;67.43
26531;BME280;14201;43.188;24.160;2024-03-22T00:48:19;99932.31;;;5.59;66.80
26531;BME280;14201;43.188;24.160;2024-03-22T00:50:44;99939.25;;;5.60;67.91
26531;BME280;14201;43.188;24.160;2024-03-22T00:53:10;99947.78;;;5.45;68.13
26531;BME280;14201;43.188;24.160;2024-03-22T00:55:36;99942.41;;;5.42;68.40
26531;BME280;14201;43.188;24.160;2024-03-22T00:58:02;99944.53;;;5.23;68.60
26531;BME280;14201;43.188;24.160;2024-03-22T01:00:28;99943.16;;;5.28;68.52
26531;BME280;14201;43.188;24.160;2024-03-22T01:02:54;99939.59;;;5.01;69.75
26531;BME280;14201;43.188;24.160;2024-03-22T01:05:19;99938.13;;;5.04;69.35
26531;BME280;14201;43.188;24.160;2024-03-22T01:07:45;99948.63;;;5.07;69.20
26531;BME280;14201;43.188;24.160;2024-03-22T01:10:11;99946.44;;;5.00;69.38
26531;BME280;14201;43.188;24.160;2024-03-22T01:12:38;99947.44;;;5.02;69.43
26531;BME280;14201;43.188;24.160;2024-03-22T01:15:07;99947.59;;;4.92;69.50
26531;BME280;14201;43.188;24.160;2024-03-22T01:17:34;99950.63;;;4.86;68.66
26531;BME280;14201;43.188;24.160;2024-03-22T01:19:59;99958.06;;;4.82;70.21
26531;BME280;14201;43.188;24.160;2024-03-22T01:22:25;99957.78;;;4.65;69.82
26531;BME280;14201;43.188;24.160;2024-03-22T01:24:51;99960.47;;;4.55;70.01
26531;BME280;14201;43.188;24.160;2024-03-22T01:27:17;99968.19;;;4.67;71.13
26531;BME280;14201;43.188;24.160;2024-03-22T01:29:42;99958.78;;;4.67;71.00
26531;BME280;14201;43.188;24.160;2024-03-22T01:32:08;99958.84;;;4.81;70.91
26531;BME280;14201;43.188;24.160;2024-03-22T01:34:33;99957.09;;;4.68;68.29
26531;BME280;14201;43.188;24.160;2024-03-22T01:37:00;99954.09;;;4.62;69.52
26531;BME280;14201;43.188;24.160;2024-03-22T01:39:26;99945.75;;;4.29;69.88
26531;BME280;14201;43.188;24.160;2024-03-22T01:41:51;99961.41;;;4.20;69.21
26531;BME280;14201;43.188;24.160;2024-03-22T01:44:17;99958.66;;;4.05;70.63
26531;BME280;14201;43.188;24.160;2024-03-22T01:46:44;99964.69;;;4.06;71.13
26531;BME280;14201;43.188;24.160;2024-03-22T01:49:11;99964.56;;;4.16;70.96
26531;BME280;14201;43.188;24.160;2024-03-22T01:51:39;99966.56;;;4.20;71.42
26531;BME280;14201;43.188;24.160;2024-03-22T01:54:08;99959.84;;;4.22;71.34
26531;BME280;14201;43.188;24.160;2024-03-22T01:56:36;99963.22;;;4.09;71.40
26531;BME280;14201;43.188;24.160;2024-03-22T01:59:03;99954.50;;;4.07;71.64
26531;BME280;14201;43.188;24.160;2024-03-22T02:01:29;99967.47;;;4.09;71.72
26531;BME280;14201;43.188;24.160;2024-03-22T02:03:55;99964.88;;;3.97;72.06
26531;BME280;14201;43.188;24.160;2024-03-22T02:06:20;99964.13;;;3.86;72.39
26531;BME280;14201;43.188;24.160;2024-03-22T02:08:46;99964.56;;;3.81;72.70
26531;BME280;14201;43.188;24.160;2024-03-22T02:11:11;99970.41;;;3.78;72.29
26531;BME280;14201;43.188;24.160;2024-03-22T02:13:37;99959.72;;;3.85;72.29
26531;BME280;14201;43.188;24.160;2024-03-22T02:16:03;99969.91;;;3.72;72.94
26531;BME280;14201;43.188;24.160;2024-03-22T02:18:29;99971.69;;;3.61;73.84
26531;BME280;14201;43.188;24.160;2024-03-22T02:20:56;99966.56;;;3.61;73.63
26531;BME280;14201;43.188;24.160;2024-03-22T02:23:35;99937.63;;;3.42;74.28
26531;BME280;14201;43.188;24.160;2024-03-22T02:26:02;99975.50;;;3.66;74.06
26531;BME280;14201;43.188;24.160;2024-03-22T02:28:28;99972.50;;;3.72;73.95
26531;BME280;14201;43.188;24.160;2024-03-22T02:30:54;99969.91;;;3.72;73.07
26531;BME280;14201;43.188;24.160;2024-03-22T02:33:19;99967.25;;;3.70;73.23
26531;BME280;14201;43.188;24.160;2024-03-22T02:35:48;99977.88;;;3.75;73.39
26531;BME280;14201;43.188;24.160;2024-03-22T02:38:14;99977.06;;;3.76;73.54
26531;BME280;14201;43.188;24.160;2024-03-22T02:40:40;99975.31;;;3.75;73.52
26531;BME280;14201;43.188;24.160;2024-03-22T02:43:06;99992.31;;;3.73;73.73
26531;BME280;14201;43.188;24.160;2024-03-22T02:45:32;99984.47;;;3.71;73.97
26531;BME280;14201;43.188;24.160;2024-03-22T02:47:57;99984.25;;;3.68;73.12
26531;BME280;14201;43.188;24.160;2024-03-22T02:50:23;99989.50;;;3.70;73.72
26531;BME280;14201;43.188;24.160;2024-03-22T02:52:49;99990.75;;;3.75;72.88
26531;BME280;14201;43.188;24.160;2024-03-22T02:55:15;99993.00;;;3.70;73.50
26531;BME280;14201;43.188;24.160;2024-03-22T02:57:41;99986.28;;;3.72;73.03
26531;BME280;14201;43.188;24.160;2024-03-22T03:00:07;100002.38;;;3.70;73.34
26531;BME280;14201;43.188;24.160;2024-03-22T03:02:33;99992.63;;;3.54;73.32
26531;BME280;14201;43.188;24.160;2024-03-22T03:04:59;99994.97;;;3.51;73.79
26531;BME280;14201;43.188;24.160;2024-03-22T03:07:25;100000.56;;;3.45;74.07
26531;BME280;14201;43.188;24.160;2024-03-22T03:09:50;99998.59;;;3.65;73.07
26531;BME280;14201;43.188;24.160;2024-03-22T03:12:16;100003.94;;;3.68;73.10
26531;BME280;14201;43.188;24.160;2024-03-22T03:14:42;100003.06;;;3.67;72.23
26531;BME280;14201;43.188;24.160;2024-03-22T03:17:07;100002.19;;;3.67;72.16
26531;BME280;14201;43.188;24.160;2024-03-22T03:19:33;100005.06;;;3.60;73.54
26531;BME280;14201;43.188;24.160;2024-03-22T03:21:59;99987.91;;;3.48;73.52
26531;BME280;14201;43.188;24.160;2024-03-22T03:24:24;99999.31;;;3.52;73.00
26531;BME280;14201;43.188;24.160;2024-03-22T03:26:50;100002.56;;;3.49;73.23
26531;BME280;14201;43.188;24.160;2024-03-22T03:29:16;100009.03;;;3.44;72.21
26531;BME280;14201;43.188;24.160;2024-03-22T03:31:41;100009.13;;;3.34;73.32
26531;BME280;14201;43.188;24.160;2024-03-22T03:34:07;99999.81;;;3.24;73.49
26531;BME280;14201;43.188;24.160;2024-03-22T03:36:32;100003.25;;;3.25;74.35
26531;BME280;14201;43.188;24.160;2024-03-22T03:38:58;100013.44;;;3.23;74.54
26531;BME280;14201;43.188;24.160;2024-03-22T03:41:23;100016.69;;;3.21;74.44
26531;BME280;14201;43.188;24.160;2024-03-22T03:43:49;100009.34;;;3.37;73.91
26531;BME280;14201;43.188;24.160;2024-03-22T03:46:14;100014.06;;;3.43;74.31
26531;BME280;14201;43.188;24.160;2024-03-22T03:48:40;100014.19;;;3.44;73.65
26531;BME280;14201;43.188;24.160;2024-03-22T03:51:06;99997.41;;;3.38;73.34
26531;BME280;14201;43.188;24.160;2024-03-22T03:53:31;100017.81;;;3.58;72.98
26531;BME280;14201;43.188;24.160;2024-03-22T03:55:57;100023.09;;;3.60;72.84
26531;BME280;14201;43.188;24.160;2024-03-22T03:58:22;100017.47;;;3.53;72.84
26531;BME280;14201;43.188;24.160;2024-03-22T04:00:48;100022.53;;;3.64;72.16
26531;BME280;14201;43.188;24.160;2024-03-22T04:03:14;100023.94;;;3.48;70.88
26531;BME280;14201;43.188;24.160;2024-03-22T04:05:39;100022.88;;;3.34;71.05
26531;BME280;14201;43.188;24.160;2024-03-22T04:08:05;100032.03;;;3.31;71.59
26531;BME280;14201;43.188;24.160;2024-03-22T04:10:31;100039.13;;;3.11;72.15
26531;BME280;14201;43.188;24.160;2024-03-22T04:12:57;100041.03;;;3.14;72.36
26531;BME280;14201;43.188;24.160;2024-03-22T04:15:23;100048.88;;;3.15;72.55
26531;BME280;14201;43.188;24.160;2024-03-22T04:17:49;100042.16;;;3.18;72.98
26531;BME280;14201;43.188;24.160;2024-03-22T04:20:14;100036.81;;;3.14;73.70
26531;BME280;14201;43.188;24.160;2024-03-22T04:22:40;100041.56;;;3.10;73.47
26531;BME280;14201;43.188;24.160;2024-03-22T04:25:06;100042.50;;;3.10;72.96
26531;BME280;14201;43.188;24.160;2024-03-22T04:27:32;100040.25;;;3.15;72.58
26531;BME280;14201;43.188;24.160;2024-03-22T04:29:57;100041.41;;;3.19;72.32
26531;BME280;14201;43.188;24.160;2024-03-22T04:32:23;100041.50;;;2.98;72.45
26531;BME280;14201;43.188;24.160;2024-03-22T04:34:49;100042.84;;;2.93;73.61
26531;BME280;14201;43.188;24.160;2024-03-22T04:37:15;100047.06;;;2.92;72.98
26531;BME280;14201;43.188;24.160;2024-03-22T04:39:40;100047.47;;;2.87;73.11
26531;BME280;14201;43.188;24.160;2024-03-22T04:42:06;100060.78;;;2.81;72.79
26531;BME280;14201;43.188;24.160;2024-03-22T04:44:32;100045.50;;;2.72;73.65
26531;BME280;14201;43.188;24.160;2024-03-22T04:46:58;100062.22;;;2.78;74.70
26531;BME280;14201;43.188;24.160;2024-03-22T04:49:24;100059.63;;;2.78;75.13
26531;BME280;14201;43.188;24.160;2024-03-22T04:51:50;100059.38;;;2.74;76.03
26531;BME280;14201;43.188;24.160;2024-03-22T04:54:15;100063.09;;;2.78;76.15
26531;BME280;14201;43.188;24.160;2024-03-22T04:56:41;100063.56;;;2.84;75.89
26531;BME280;14201;43.188;24.160;2024-03-22T04:59:07;100059.41;;;2.96;76.19
26531;BME280;14201;43.188;24.160;2024-03-22T05:01:32;100065.47;;;2.97;76.53
26531;BME280;14201;43.188;24.160;2024-03-22T05:03:58;100064.72;;;3.10;76.20
26531;BME280;14201;43.188;24.160;2024-03-22T05:06:23;100070.00;;;3.11;76.73
26531;BME280;14201;43.188;24.160;2024-03-22T05:08:49;100075.59;;;3.28;74.58
26531;BME280;14201;43.188;24.160;2024-03-22T05:11:15;100079.41;;;3.33;74.64
26531;BME280;14201;43.188;24.160;2024-03-22T05:13:40;100081.38;;;3.47;76.10
26531;BME280;14201;43.188;24.160;2024-03-22T05:16:07;100076.31;;;3.71;75.75
26531;BME280;14201;43.188;24.160;2024-03-22T05:18:32;100087.78;;;3.86;75.43
26531;BME280;14201;43.188;24.160;2024-03-22T05:20:58;100084.34;;;3.98;75.48
26531;BME280;14201;43.188;24.160;2024-03-22T05:23:23;100081.56;;;4.18;75.35
26531;BME280;14201;43.188;24.160;2024-03-22T05:25:49;100084.16;;;4.42;75.43
26531;BME280;14201;43.188;24.160;2024-03-22T05:28:15;100082.72;;;4.57;75.08
26531;BME280;14201;43.188;24.160;2024-03-22T05:30:40;100084.97;;;4.52;74.28
26531;BME280;14201;43.188;24.160;2024-03-22T05:33:06;100085.28;;;4.57;73.97
26531;BME280;14201;43.188;24.160;2024-03-22T05:35:32;100085.84;;;4.65;73.48
26531;BME280;14201;43.188;24.160;2024-03-22T05:37:57;100085.09;;;4.54;73.44
26531;BME280;14201;43.188;24.160;2024-03-22T05:40:23;100084.94;;;4.88;74.80
26531;BME280;14201;43.188;24.160;2024-03-22T05:42:49;100081.09;;;5.06;72.79
26531;BME280;14201;43.188;24.160;2024-03-22T05:45:14;100087.44;;;5.35;72.98
26531;BME280;14201;43.188;24.160;2024-03-22T05:47:40;100091.06;;;5.50;73.00
26531;BME280;14201;43.188;24.160;2024-03-22T05:50:06;100090.28;;;5.77;72.01
26531;BME280;14201;43.188;24.160;2024-03-22T05:52:34;100075.41;;;5.86;73.20
26531;BME280;14201;43.188;24.160;2024-03-22T05:54:59;100098.66;;;6.49;71.21
26531;BME280;14201;43.188;24.160;2024-03-22T05:57:25;100097.53;;;6.73;72.39
26531;BME280;14201;43.188;24.160;2024-03-22T05:59:51;100098.25;;;6.83;70.97
26531;BME280;14201;43.188;24.160;2024-03-22T06:02:18;100103.31;;;6.82;70.66
26531;BME280;14201;43.188;24.160;2024-03-22T06:04:47;100100.59;;;7.20;69.35
26531;BME280;14201;43.188;24.160;2024-03-22T06:07:12;100110.41;;;7.39;68.05
26531;BME280;14201;43.188;24.160;2024-03-22T06:09:39;100112.34;;;7.57;68.74
26531;BME280;14201;43.188;24.160;2024-03-22T06:12:17;100105.50;;;7.72;68.23
26531;BME280;14201;43.188;24.160;2024-03-22T06:26:17;100106.97;;;9.32;63.26
26531;BME280;14201;43.188;24.160;2024-03-22T06:28:43;100105.19;;;9.48;62.75
26531;BME280;14201;43.188;24.160;2024-03-22T06:31:09;100099.28;;;9.66;62.32
26531;BME280;14201;43.188;24.160;2024-03-22T06:33:35;100099.03;;;9.78;62.86
26531;BME280;14201;43.188;24.160;2024-03-22T06:36:01;100104.97;;;9.92;61.13
26531;BME280;14201;43.188;24.160;2024-03-22T06:38:28;100106.06;;;10.14;60.83
26531;BME280;14201;43.188;24.160;2024-03-22T06:40:54;100103.50;;;10.48;59.72
26531;BME280;14201;43.188;24.160;2024-03-22T06:43:19;100094.69;;;10.62;59.81
26531;BME280;14201;43.188;24.160;2024-03-22T06:45:45;100114.34;;;11.10;57.70
26531;BME280;14201;43.188;24.160;2024-03-22T06:48:10;100105.19;;;11.37;55.51
26531;BME280;14201;43.188;24.160;2024-03-22T06:50:36;100110.41;;;11.75;52.99
26531;BME280;14201;43.188;24.160;2024-03-22T06:53:01;100104.38;;;11.95;55.04
26531;BME280;14201;43.188;24.160;2024-03-22T06:55:28;100108.81;;;11.98;55.04
26531;BME280;14201;43.188;24.160;2024-03-22T06:57:53;100112.06;;;12.12;53.00
26531;BME280;14201;43.188;24.160;2024-03-22T07:00:19;100119.56;;;12.25;51.68
26531;BME280;14201;43.188;24.160;2024-03-22T07:02:45;100115.38;;;12.29;54.04
26531;BME280;14201;43.188;24.160;2024-03-22T07:05:11;100116.91;;;12.64;51.43
26531;BME280;14201;43.188;24.160;2024-03-22T07:07:37;100123.88;;;12.86;50.97
26531;BME280;14201;43.188;24.160;2024-03-22T07:10:03;100113.13;;;12.78;49.09
26531;BME280;14201;43.188;24.160;2024-03-22T07:12:31;100115.16;;;13.07;49.75
26531;BME280;14201;43.188;24.160;2024-03-22T07:14:58;100106.56;;;13.32;49.23
26531;BME280;14201;43.188;24.160;2024-03-22T07:17:24;100111.47;;;13.47;48.82
26531;BME280;14201;43.188;24.160;2024-03-22T07:19:51;100109.44;;;13.39;47.85
26531;BME280;14201;43.188;24.160;2024-03-22T07:22:17;100096.53;;;13.67;49.33
26531;BME280;14201;43.188;24.160;2024-03-22T07:24:43;100106.28;;;13.95;48.89
26531;BME280;14201;43.188;24.160;2024-03-22T07:27:09;100110.78;;;14.49;47.05
26531;BME280;14201;43.188;24.160;2024-03-22T07:29:35;100107.59;;;14.83;44.80
26531;BME280;14201;43.188;24.160;2024-03-22T07:32:00;100107.00;;;14.92;44.40
26531;BME280;14201;43.188;24.160;2024-03-22T07:34:26;100109.75;;;14.96;42.55
26531;BME280;14201;43.188;24.160;2024-03-22T07:36:51;100113.53;;;14.77;40.87
26531;BME280;14201;43.188;24.160;2024-03-22T07:39:17;100108.84;;;14.43;42.29
26531;BME280;14201;43.188;24.160;2024-03-22T07:41:42;100099.97;;;13.90;44.49
26531;BME280;14201;43.188;24.160;2024-03-22T07:44:08;100108.78;;;13.68;45.08
26531;BME280;14201;43.188;24.160;2024-03-22T07:46:34;100120.88;;;12.98;44.98
26531;BME280;14201;43.188;24.160;2024-03-22T07:48:59;100122.84;;;12.40;44.54
26531;BME280;14201;43.188;24.160;2024-03-22T07:51:25;100113.00;;;12.54;45.38
26531;BME280;14201;43.188;24.160;2024-03-22T07:53:51;100112.63;;;12.66;44.76
26531;BME280;14201;43.188;24.160;2024-03-22T07:56:17;100104.09;;;12.70;44.06
26531;BME280;14201;43.188;24.160;2024-03-22T07:58:44;100111.69;;;12.87;44.61
26531;BME280;14201;43.188;24.160;2024-03-22T08:01:09;100112.88;;;12.93;44.98
26531;BME280;14201;43.188;24.160;2024-03-22T08:03:36;100107.88;;;12.99;43.85
26531;BME280;14201;43.188;24.160;2024-03-22T08:06:01;100118.25;;;12.98;44.78
26531;BME280;14201;43.188;24.160;2024-03-22T08:08:27;100115.03;;;12.83;44.12
26531;BME280;14201;43.188;24.160;2024-03-22T08:10:52;100120.00;;;12.76;45.06
26531;BME280;14201;43.188;24.160;2024-03-22T08:13:18;100111.91;;;12.91;44.50
26531;BME280;14201;43.188;24.160;2024-03-22T08:15:44;100121.94;;;13.24;44.89
26531;BME280;14201;43.188;24.160;2024-03-22T08:18:11;100115.81;;;13.46;43.95
26531;BME280;14201;43.188;24.160;2024-03-22T08:20:36;100120.19;;;13.46;42.70
26531;BME280;14201;43.188;24.160;2024-03-22T08:23:04;100113.78;;;13.62;42.28
26531;BME280;14201;43.188;24.160;2024-03-22T08:25:30;100116.75;;;13.71;43.32
26531;BME280;14201;43.188;24.160;2024-03-22T08:27:56;100115.00;;;13.94;44.71
26531;BME280;14201;43.188;24.160;2024-03-22T08:30:22;100116.91;;;13.75;42.66
26531;BME280;14201;43.188;24.160;2024-03-22T08:32:48;100106.41;;;13.98;44.44
26531;BME280;14201;43.188;24.160;2024-03-22T08:35:14;100116.53;;;14.63;42.34
26531;BME280;14201;43.188;24.160;2024-03-22T08:37:39;100123.16;;;14.53;41.95
26531;BME280;14201;43.188;24.160;2024-03-22T08:40:05;100113.41;;;13.99;42.52
26531;BME280;14201;43.188;24.160;2024-03-22T08:42:32;100108.97;;;14.46;42.00
26531;BME280;14201;43.188;24.160;2024-03-22T08:44:58;100109.06;;;14.75;40.88
26531;BME280;14201;43.188;24.160;2024-03-22T08:47:24;100105.38;;;14.18;41.21
26531;BME280;14201;43.188;24.160;2024-03-22T08:49:50;100107.84;;;14.40;42.37
26531;BME280;14201;43.188;24.160;2024-03-22T08:52:15;100106.38;;;14.22;42.71
26531;BME280;14201;43.188;24.160;2024-03-22T08:54:41;100101.00;;;14.43;41.10
26531;BME280;14201;43.188;24.160;2024-03-22T08:57:06;100109.88;;;14.23;41.99
26531;BME280;14201;43.188;24.160;2024-03-22T08:59:32;100102.06;;;14.74;41.29
26531;BME280;14201;43.188;24.160;2024-03-22T09:01:58;100093.28;;;15.29;41.25
26531;BME280;14201;43.188;24.160;2024-03-22T09:04:25;100086.34;;;15.60;39.68
26531;BME280;14201;43.188;24.160;2024-03-22T09:06:50;100094.44;;;15.68;40.04
26531;BME280;14201;43.188;24.160;2024-03-22T09:09:16;100090.03;;;15.97;39.26
26531;BME280;14201;43.188;24.160;2024-03-22T09:11:42;100087.16;;;15.58;38.74
26531;BME280;14201;43.188;24.160;2024-03-22T09:14:08;100081.56;;;15.75;39.36
26531;BME280;14201;43.188;24.160;2024-03-22T09:16:33;100081.03;;;16.19;38.53
26531;BME280;14201;43.188;24.160;2024-03-22T09:18:59;100091.56;;;15.59;39.64
26531;BME280;14201;43.188;24.160;2024-03-22T09:21:25;100091.25;;;14.65;39.71
26531;BME280;14201;43.188;24.160;2024-03-22T09:23:50;100093.31;;;14.75;40.55
26531;BME280;14201;43.188;24.160;2024-03-22T09:26:16;100090.69;;;14.73;39.72
26531;BME280;14201;43.188;24.160;2024-03-22T09:28:41;100076.81;;;15.05;39.30
26531;BME280;14201;43.188;24.160;2024-03-22T09:31:07;100079.41;;;15.32;38.86
26531;BME280;14201;43.188;24.160;2024-03-22T09:33:34;100078.28;;;15.25;38.55
26531;BME280;14201;43.188;24.160;2024-03-22T09:36:00;100071.28;;;15.53;38.69
26531;BME280;14201;43.188;24.160;2024-03-22T09:38:25;100068.25;;;16.01;37.11
26531;BME280;14201;43.188;24.160;2024-03-22T09:40:51;100064.72;;;16.34;37.30
26531;BME280;14201;43.188;24.160;2024-03-22T09:43:23;100066.63;;;16.73;36.91
26531;BME280;14201;43.188;24.160;2024-03-22T09:45:51;100065.78;;;16.76;36.43
26531;BME280;14201;43.188;24.160;2024-03-22T09:48:18;100063.34;;;16.82;36.80
26531;BME280;14201;43.188;24.160;2024-03-22T09:50:45;100055.06;;;17.03;36.98
26531;BME280;14201;43.188;24.160;2024-03-22T09:53:12;100060.84;;;17.26;34.96
26531;BME280;14201;43.188;24.160;2024-03-22T09:55:39;100060.97;;;16.58;36.11
26531;BME280;14201;43.188;24.160;2024-03-22T09:58:09;100049.47;;;15.27;37.49
26531;BME280;14201;43.188;24.160;2024-03-22T10:00:35;100058.59;;;14.82;37.90
26531;BME280;14201;43.188;24.160;2024-03-22T10:03:01;100063.53;;;14.73;39.01
26531;BME280;14201;43.188;24.160;2024-03-22T10:05:27;100065.56;;;15.09;37.25
26531;BME280;14201;43.188;24.160;2024-03-22T10:07:53;100051.47;;;15.66;37.66
26531;BME280;14201;43.188;24.160;2024-03-22T10:10:19;100049.28;;;16.46;37.48
26531;BME280;14201;43.188;24.160;2024-03-22T10:12:45;100055.78;;;16.26;36.03
26531;BME280;14201;43.188;24.160;2024-03-22T10:15:10;100031.88;;;16.51;35.72
26531;BME280;14201;43.188;24.160;2024-03-22T10:17:38;100031.50;;;17.09;34.93
26531;BME280;14201;43.188;24.160;2024-03-22T10:20:05;100040.97;;;17.42;34.66
26531;BME280;14201;43.188;24.160;2024-03-22T10:22:38;100025.66;;;16.84;34.06
26531;BME280;14201;43.188;24.160;2024-03-22T10:25:06;100021.25;;;17.23;35.80
26531;BME280;14201;43.188;24.160;2024-03-22T10:27:32;100032.31;;;17.06;35.49
26531;BME280;14201;43.188;24.160;2024-03-22T10:29:58;100032.38;;;17.09;35.36
26531;BME280;14201;43.188;24.160;2024-03-22T10:32:24;100022.94;;;17.62;38.74
26531;BME280;14201;43.188;24.160;2024-03-22T10:34:50;100016.41;;;17.85;33.41
26531;BME280;14201;43.188;24.160;2024-03-22T10:37:16;100019.88;;;18.30;35.32
26531;BME280;14201;43.188;24.160;2024-03-22T10:39:43;100023.16;;;18.18;33.80
26531;BME280;14201;43.188;24.160;2024-03-22T10:42:11;100016.56;;;17.50;34.95
26531;BME280;14201;43.188;24.160;2024-03-22T10:44:38;100013.47;;;17.70;33.84
26531;BME280;14201;43.188;24.160;2024-03-22T10:47:05;100011.91;;;18.28;37.27
26531;BME280;14201;43.188;24.160;2024-03-22T10:49:34;99999.94;;;18.49;34.90
26531;BME280;14201;43.188;24.160;2024-03-22T10:52:01;100008.06;;;18.09;34.06
26531;BME280;14201;43.188;24.160;2024-03-22T10:54:34;100003.63;;;18.08;33.60
26531;BME280;14201;43.188;24.160;2024-03-22T10:57:00;99999.00;;;17.49;36.01
26531;BME280;14201;43.188;24.160;2024-03-22T10:59:26;99989.47;;;17.12;34.21
26531;BME280;14201;43.188;24.160;2024-03-22T11:01:52;99987.69;;;16.73;35.06
26531;BME280;14201;43.188;24.160;2024-03-22T11:04:20;99979.84;;;17.58;34.76
26531;BME280;14201;43.188;24.160;2024-03-22T11:06:49;99989.03;;;16.93;34.75
26531;BME280;14201;43.188;24.160;2024-03-22T11:09:22;99981.97;;;16.91;33.88
26531;BME280;14201;43.188;24.160;2024-03-22T11:11:51;99974.72;;;17.66;35.16
26531;BME280;14201;43.188;24.160;2024-03-22T11:14:17;99969.78;;;17.37;34.38
26531;BME280;14201;43.188;24.160;2024-03-22T11:16:46;99968.56;;;17.65;33.45
26531;BME280;14201;43.188;24.160;2024-03-22T11:19:12;99959.53;;;17.98;35.07
26531;BME280;14201;43.188;24.160;2024-03-22T11:21:38;99954.19;;;18.47;35.00
26531;BME280;14201;43.188;24.160;2024-03-22T11:24:04;99953.69;;;18.74;33.89
26531;BME280;14201;43.188;24.160;2024-03-22T11:26:34;99953.47;;;18.57;33.24
26531;BME280;14201;43.188;24.160;2024-03-22T11:29:00;99951.91;;;17.68;34.02
26531;BME280;14201;43.188;24.160;2024-03-22T11:31:26;99948.91;;;17.04;35.49
26531;BME280;14201;43.188;24.160;2024-03-22T11:33:55;99949.91;;;17.53;35.80
26531;BME280;14201;43.188;24.160;2024-03-22T11:36:22;99934.59;;;17.81;35.98
26531;BME280;14201;43.188;24.160;2024-03-22T11:38:48;99942.69;;;18.43;36.03
26531;BME280;14201;43.188;24.160;2024-03-22T11:41:17;99935.47;;;18.89;33.81
26531;BME280;14201;43.188;24.160;2024-03-22T11:43:45;99931.63;;;19.33;34.46
26531;BME280;14201;43.188;24.160;2024-03-22T11:46:11;99932.03;;;18.97;33.52
26531;BME280;14201;43.188;24.160;2024-03-22T11:48:40;99927.09;;;18.59;33.98
26531;BME280;14201;43.188;24.160;2024-03-22T11:51:08;99926.75;;;18.95;34.50
26531;BME280;14201;43.188;24.160;2024-03-22T11:53:35;99919.34;;;19.37;33.03
26531;BME280;14201;43.188;24.160;2024-03-22T11:56:01;99917.88;;;19.70;31.67
26531;BME280;14201;43.188;24.160;2024-03-22T11:58:29;99918.09;;;19.86;32.17
26531;BME280;14201;43.188;24.160;2024-03-22T12:00:56;99911.25;;;20.09;34.13
26531;BME280;14201;43.188;24.160;2024-03-22T12:03:22;99906.13;;;20.36;34.28
26531;BME280;14201;43.188;24.160;2024-03-22T12:05:48;99902.72;;;20.56;32.62
26531;BME280;14201;43.188;24.160;2024-03-22T12:08:17;99906.34;;;20.61;32.79
26531;BME280;14201;43.188;24.160;2024-03-22T12:10:43;99900.28;;;20.91;30.83
26531;BME280;14201;43.188;24.160;2024-03-22T12:13:09;99910.09;;;21.12;31.49
26531;BME280;14201;43.188;24.160;2024-03-22T12:15:35;99903.06;;;21.20;31.31
26531;BME280;14201;43.188;24.160;2024-03-22T12:18:01;99900.28;;;20.90;30.60
26531;BME280;14201;43.188;24.160;2024-03-22T12:20:27;99900.28;;;20.90;29.83
26531;BME280;14201;43.188;24.160;2024-03-22T12:22:52;99889.81;;;21.16;30.39
26531;BME280;14201;43.188;24.160;2024-03-22T12:25:18;99892.31;;;20.85;28.86
26531;BME280;14201;43.188;24.160;2024-03-22T12:27:43;99879.91;;;20.67;30.55
26531;BME280;14201;43.188;24.160;2024-03-22T12:30:10;99887.59;;;20.33;29.56
26531;BME280;14201;43.188;24.160;2024-03-22T12:32:36;99879.63;;;20.29;30.14
26531;BME280;14201;43.188;24.160;2024-03-22T12:35:02;99884.22;;;19.50;30.79
26531;BME280;14201;43.188;24.160;2024-03-22T12:37:27;99870.59;;;20.00;31.32
26531;BME280;14201;43.188;24.160;2024-03-22T12:39:53;99873.44;;;20.30;31.74
26531;BME280;14201;43.188;24.160;2024-03-22T12:42:19;99870.97;;;20.54;31.44
26531;BME280;14201;43.188;24.160;2024-03-22T12:44:45;99878.03;;;20.54;29.59
26531;BME280;14201;43.188;24.160;2024-03-22T12:47:11;99872.72;;;20.57;30.31
26531;BME280;14201;43.188;24.160;2024-03-22T12:49:36;99872.38;;;20.00;29.21
26531;BME280;14201;43.188;24.160;2024-03-22T12:52:02;99870.59;;;20.00;30.65
26531;BME280;14201;43.188;24.160;2024-03-22T12:54:28;99863.69;;;19.20;29.93
26531;BME280;14201;43.188;24.160;2024-03-22T12:56:53;99871.84;;;19.46;29.74